createdAt,value
2023-04-16T00:00:28.343Z,102093.84
2023-04-16T00:02:55.626Z,102094.69
2023-04-16T00:05:22.860Z,102085.88
2023-04-16T00:07:51.983Z,102089.13
2023-04-16T00:10:19.016Z,102088.25
2023-04-16T00:12:45.884Z,102089.00
2023-04-16T00:15:12.722Z,102093.97
2023-04-16T00:17:39.564Z,102090.34
2023-04-16T00:20:08.991Z,102080.09
2023-04-16T00:22:35.901Z,102089.31
2023-04-16T00:25:04.816Z,102089.41
2023-04-16T00:27:31.668Z,102096.78
2023-04-16T00:29:58.604Z,102086.84
2023-04-16T00:32:25.523Z,102091.47
2023-04-16T00:34:52.424Z,102100.88
2023-04-16T00:37:19.235Z,102088.34
2023-04-16T00:39:46.089Z,102085.69
2023-04-16T00:42:14.294Z,102079.78
2023-04-16T00:44:41.117Z,102083.84
2023-04-16T00:47:08.675Z,102083.31
2023-04-16T00:49:36.409Z,102092.72
2023-04-16T00:52:03.440Z,102084.28
2023-04-16T00:54:31.771Z,102080.69
2023-04-16T00:56:59.174Z,102090.91
2023-04-16T00:59:27.925Z,102091.94
2023-04-16T01:01:54.991Z,102096.50
2023-04-16T01:04:21.990Z,102093.22
2023-04-16T01:06:48.917Z,102094.28
2023-04-16T01:09:15.870Z,102097.47
2023-04-16T01:11:42.723Z,102090.47
2023-04-16T01:14:09.581Z,102096.34
2023-04-16T01:16:37.829Z,102102.13
2023-04-16T01:19:04.653Z,102096.78
2023-04-16T01:21:33.115Z,102099.66
2023-04-16T01:24:02.855Z,102099.47
2023-04-16T01:26:29.714Z,102095.91
2023-04-16T01:28:56.636Z,102094.06
2023-04-16T01:31:23.496Z,102094.69
2023-04-16T01:33:50.361Z,102094.69
2023-04-16T01:36:17.199Z,102100.69
2023-04-16T01:38:45.451Z,102098.00
2023-04-16T01:41:12.281Z,102103.78
2023-04-16T01:43:40.317Z,102102.47
2023-04-16T01:46:15.656Z,102107.97
2023-04-16T01:48:43.024Z,102105.25
2023-04-16T01:51:10.258Z,102101.47
2023-04-16T01:53:37.291Z,102109.91
2023-04-16T01:56:06.592Z,102113.53
2023-04-16T01:58:34.074Z,102109.69
2023-04-16T02:01:01.065Z,102110.94
2023-04-16T02:03:28.240Z,102112.78
2023-04-16T02:05:55.223Z,102111.47
2023-04-16T02:08:22.077Z,102109.81
2023-04-16T02:10:50.463Z,102116.44
2023-04-16T02:13:18.742Z,102111.91
2023-04-16T02:15:46.736Z,102119.44
2023-04-16T02:18:13.815Z,102103.69
2023-04-16T02:20:41.477Z,102117.47
2023-04-16T02:23:08.459Z,102111.16
2023-04-16T02:25:39.050Z,102116.03
2023-04-16T02:28:05.877Z,102107.94
2023-04-16T02:30:34.939Z,102106.31
2023-04-16T02:33:03.760Z,102101.47
2023-04-16T02:35:30.659Z,102100.41
2023-04-16T02:37:57.720Z,102096.25
2023-04-16T02:40:24.960Z,102094.81
2023-04-16T02:42:51.854Z,102092.03
2023-04-16T02:45:19.145Z,102094.75
2023-04-16T02:47:47.910Z,102092.97
2023-04-16T02:50:14.898Z,102090.78
2023-04-16T02:52:41.818Z,102094.00
2023-04-16T02:55:10.054Z,102094.81
2023-04-16T02:57:36.898Z,102094.78
2023-04-16T03:00:07.382Z,102087.78
2023-04-16T03:02:34.317Z,102090.47
2023-04-16T03:05:02.714Z,102095.94
2023-04-16T03:07:29.528Z,102093.56
2023-04-16T03:09:56.461Z,102095.94
2023-04-16T03:12:23.329Z,102103.16
2023-04-16T03:14:53.444Z,102099.47
2023-04-16T03:17:20.349Z,102106.81
2023-04-16T03:19:47.181Z,102108.88
2023-04-16T03:22:15.556Z,102101.00
2023-04-16T03:24:42.382Z,102110.31
2023-04-16T03:27:09.228Z,102119.41
2023-04-16T03:29:37.004Z,102114.47
2023-04-16T03:32:04.022Z,102119.13
2023-04-16T03:34:31.001Z,102118.59
2023-04-16T03:36:58.050Z,102119.09
2023-04-16T03:39:26.369Z,102114.06
2023-04-16T03:41:53.179Z,102116.94
2023-04-16T03:44:20.050Z,102119.00
2023-04-16T03:46:46.916Z,102119.03
2023-04-16T03:49:13.924Z,102106.31
2023-04-16T03:51:40.870Z,102114.97
2023-04-16T03:54:07.695Z,102105.88
2023-04-16T03:56:35.956Z,102105.78
2023-04-16T03:59:02.868Z,102110.03
2023-04-16T04:01:29.693Z,102105.25
2023-04-16T04:03:56.810Z,102106.41
2023-04-16T04:06:23.852Z,102113.53
2023-04-16T04:08:50.725Z,102103.19
2023-04-16T04:11:17.560Z,102115.81
2023-04-16T04:13:46.017Z,102105.97
2023-04-16T04:16:12.839Z,102110.75
2023-04-16T04:18:39.749Z,102105.97
2023-04-16T04:21:07.163Z,102106.50
2023-04-16T04:23:34.049Z,102113.00
2023-04-16T04:26:03.864Z,102101.22
2023-04-16T04:28:31.056Z,102101.53
2023-04-16T04:30:59.710Z,102112.81
2023-04-16T04:33:26.749Z,102102.59
2023-04-16T04:35:53.915Z,102106.44
2023-04-16T04:38:22.342Z,102110.78
2023-04-16T04:40:49.228Z,102105.22
2023-04-16T04:43:16.192Z,102113.41
2023-04-16T04:45:43.225Z,102119.94
2023-04-16T04:48:11.442Z,102121.69
2023-04-16T04:50:38.447Z,102122.03
2023-04-16T04:53:09.938Z,102117.66
2023-04-16T04:55:37.446Z,102123.47
2023-04-16T04:58:04.824Z,102130.00
2023-04-16T05:00:31.957Z,102123.69
2023-04-16T05:03:01.978Z,102130.00
2023-04-16T05:05:30.543Z,102126.19
2023-04-16T05:07:57.413Z,102126.56
2023-04-16T05:10:24.302Z,102131.13
2023-04-16T05:12:51.208Z,102132.78
2023-04-16T05:15:18.130Z,102128.66
2023-04-16T05:17:45.109Z,102137.56
2023-04-16T05:20:12.068Z,102137.16
2023-04-16T05:22:40.353Z,102129.66
2023-04-16T05:25:07.676Z,102133.81
2023-04-16T05:27:34.516Z,102142.81
2023-04-16T05:30:01.450Z,102145.84
2023-04-16T05:32:28.279Z,102141.78
2023-04-16T05:34:55.255Z,102144.56
2023-04-16T05:37:22.089Z,102153.50
2023-04-16T05:39:50.480Z,102157.88
2023-04-16T05:42:17.349Z,102151.31
2023-04-16T05:44:44.205Z,102149.09
2023-04-16T05:47:11.095Z,102155.03
2023-04-16T05:49:38.012Z,102152.22
2023-04-16T05:52:05.756Z,102161.56
2023-04-16T05:54:32.598Z,102163.22
2023-04-16T05:57:01.855Z,102150.97
2023-04-16T05:59:29.432Z,102155.75
2023-04-16T06:01:56.681Z,102158.16
2023-04-16T06:04:23.641Z,102164.25
2023-04-16T06:06:50.771Z,102166.47
2023-04-16T06:09:18.380Z,102166.50
2023-04-16T06:11:45.618Z,102171.03
2023-04-16T06:14:13.909Z,102167.00
2023-04-16T06:16:40.842Z,102169.94
2023-04-16T06:19:07.843Z,102155.56
2023-04-16T06:21:34.941Z,102165.81
2023-04-16T06:24:01.817Z,102167.28
2023-04-16T06:26:28.651Z,102164.91
2023-04-16T06:28:55.654Z,102172.09
2023-04-16T06:31:24.511Z,102163.56
2023-04-16T06:33:51.385Z,102174.13
2023-04-16T06:36:18.343Z,102168.47
2023-04-16T06:38:45.349Z,102190.56
2023-04-16T06:41:14.332Z,102176.78
2023-04-16T06:43:41.434Z,102180.13
2023-04-16T06:46:08.295Z,102190.84
2023-04-16T06:48:36.543Z,102185.69
2023-04-16T06:51:04.624Z,102186.09
2023-04-16T06:53:31.811Z,102190.41
2023-04-16T06:55:58.649Z,102204.53
2023-04-16T06:58:25.656Z,102197.78
2023-04-16T07:00:52.647Z,102206.88
2023-04-16T07:03:19.654Z,102192.38
2023-04-16T07:05:47.971Z,102198.22
2023-04-16T07:08:14.819Z,102202.34
2023-04-16T07:10:41.717Z,102211.44
2023-04-16T07:13:08.676Z,102208.13
2023-04-16T07:15:35.573Z,102214.22
2023-04-16T07:18:02.508Z,102221.31
2023-04-16T07:20:29.406Z,102213.84
2023-04-16T07:22:59.420Z,102220.94
2023-04-16T07:25:26.963Z,102217.94
2023-04-16T07:27:53.891Z,102219.84
2023-04-16T07:30:20.758Z,102229.00
2023-04-16T07:32:47.688Z,102219.63
2023-04-16T07:35:15.863Z,102237.06
2023-04-16T07:37:42.798Z,102236.03
2023-04-16T07:40:12.290Z,102238.75
2023-04-16T07:42:39.127Z,102237.94
2023-04-16T07:45:07.580Z,102238.50
2023-04-16T07:47:34.426Z,102242.94
2023-04-16T07:50:01.351Z,102244.38
2023-04-16T07:52:28.145Z,102246.56
2023-04-16T07:54:54.999Z,102255.09
2023-04-16T07:57:23.188Z,102243.03
2023-04-16T07:59:50.036Z,102251.41
2023-04-16T08:02:17.262Z,102255.09
2023-04-16T08:04:44.762Z,102252.44
2023-04-16T08:07:11.993Z,102263.22
2023-04-16T08:09:47.695Z,102262.75
2023-04-16T08:12:14.589Z,102259.81
2023-04-16T08:14:42.865Z,102277.19
2023-04-16T08:17:10.116Z,102273.88
2023-04-16T08:19:36.910Z,102272.03
2023-04-16T08:22:04.083Z,102281.69
2023-04-16T08:24:31.042Z,102270.91
2023-04-16T08:27:08.028Z,102272.03
2023-04-16T08:29:43.569Z,102273.88
2023-04-16T08:32:10.676Z,102280.47
2023-04-16T08:34:37.697Z,102280.59
2023-04-16T08:37:04.556Z,102276.22
2023-04-16T08:39:31.689Z,102280.41
2023-04-16T08:41:59.041Z,102293.66
2023-04-16T08:44:28.487Z,102285.59
2023-04-16T08:46:59.007Z,102297.13
2023-04-16T08:49:26.948Z,102286.47
2023-04-16T08:51:55.152Z,102283.41
2023-04-16T08:54:32.584Z,102284.59
2023-04-16T08:57:00.298Z,102286.31
2023-04-16T08:59:28.582Z,102280.66
2023-04-16T09:01:58.882Z,102286.19
2023-04-16T09:04:28.356Z,102289.91
2023-04-16T09:06:59.464Z,102294.66
2023-04-16T09:09:27.146Z,102283.63
2023-04-16T09:11:54.383Z,102295.34
2023-04-16T09:14:22.158Z,102290.47
2023-04-16T09:16:49.678Z,102285.28
2023-04-16T09:19:18.009Z,102298.09
2023-04-16T09:21:47.751Z,102298.66
2023-04-16T09:24:14.701Z,102280.16
2023-04-16T09:26:43.529Z,102290.06
2023-04-16T09:29:10.812Z,102292.13
2023-04-16T09:31:37.986Z,102288.38
2023-04-16T09:34:06.596Z,102288.91
2023-04-16T09:36:35.997Z,102287.94
2023-04-16T09:39:04.212Z,102294.53
2023-04-16T09:41:33.335Z,102287.31
2023-04-16T09:44:01.925Z,102302.94
2023-04-16T09:46:31.892Z,102297.00
2023-04-16T09:48:58.895Z,102295.16
2023-04-16T09:51:26.986Z,102300.84
2023-04-16T09:53:57.109Z,102294.91
2023-04-16T09:56:26.101Z,102294.75
2023-04-16T09:58:58.201Z,102307.75
2023-04-16T10:01:25.577Z,102307.09
2023-04-16T10:03:57.798Z,102306.66
2023-04-16T10:06:27.932Z,102310.66
2023-04-16T10:08:59.254Z,102307.84
2023-04-16T10:11:26.448Z,102309.97
2023-04-16T10:13:53.632Z,102314.72
2023-04-16T10:16:22.765Z,102307.41
2023-04-16T10:18:49.663Z,102308.03
2023-04-16T10:21:16.824Z,102305.00
2023-04-16T10:23:44.060Z,102309.03
2023-04-16T10:26:12.579Z,102314.16
2023-04-16T10:28:39.440Z,102328.28
2023-04-16T10:31:09.196Z,102307.06
2023-04-16T10:33:40.060Z,102314.25
2023-04-16T10:36:11.997Z,102309.78
2023-04-16T10:38:40.606Z,102312.69
2023-04-16T10:41:09.287Z,102319.34
2023-04-16T10:43:42.981Z,102318.00
2023-04-16T10:46:23.583Z,102325.19
2023-04-16T10:48:53.375Z,102318.38
2023-04-16T10:51:29.489Z,102318.03
2023-04-16T10:53:57.568Z,102316.09
2023-04-16T10:56:25.496Z,102319.44
2023-04-16T10:58:57.713Z,102315.00
2023-04-16T11:01:32.542Z,102307.91
2023-04-16T11:04:02.097Z,102316.22
2023-04-16T11:06:29.748Z,102312.16
2023-04-16T11:08:56.636Z,102315.09
2023-04-16T11:11:23.756Z,102316.16
2023-04-16T11:13:57.105Z,102305.50
2023-04-16T11:16:25.515Z,102304.97
2023-04-16T11:18:53.502Z,102306.31
2023-04-16T11:21:22.508Z,102297.91
2023-04-16T11:23:50.688Z,102305.69
2023-04-16T11:26:25.138Z,102298.97
2023-04-16T11:28:52.135Z,102297.09
2023-04-16T11:31:20.812Z,102302.81
2023-04-16T11:33:47.793Z,102302.22
2023-04-16T11:36:14.774Z,102302.50
2023-04-16T11:38:43.007Z,102290.91
2023-04-16T11:41:11.148Z,102303.88
2023-04-16T11:43:38.327Z,102312.88
2023-04-16T11:46:20.156Z,102301.38
2023-04-16T11:48:56.195Z,102300.03
2023-04-16T11:51:23.633Z,102295.44
2023-04-16T11:53:53.110Z,102304.31
2023-04-16T11:56:28.338Z,102306.97
2023-04-16T11:59:13.928Z,102303.66
2023-04-16T12:01:45.521Z,102297.56
2023-04-16T12:04:14.625Z,102299.41
2023-04-16T12:06:41.796Z,102302.28
2023-04-16T12:09:24.968Z,102316.78
2023-04-16T12:11:51.929Z,102305.22
2023-04-16T12:14:19.018Z,102302.13
2023-04-16T12:16:45.986Z,102305.63
2023-04-16T12:19:14.760Z,102302.94
2023-04-16T12:21:43.382Z,102306.94
2023-04-16T12:24:15.823Z,102307.81
2023-04-16T12:26:44.772Z,102311.16
2023-04-16T12:29:16.779Z,102306.59
2023-04-16T12:31:44.242Z,102292.75
2023-04-16T12:34:11.294Z,102314.06
2023-04-16T12:36:39.588Z,102310.03
2023-04-16T12:39:07.479Z,102309.84
2023-04-16T12:41:36.902Z,102312.84
2023-04-16T12:44:06.800Z,102311.03
2023-04-16T12:46:33.761Z,102308.09
2023-04-16T12:49:00.744Z,102310.69
2023-04-16T12:51:28.088Z,102318.16
2023-04-16T12:53:56.454Z,102319.84
2023-04-16T12:56:23.725Z,102308.59
2023-04-16T12:58:52.001Z,102319.31
2023-04-16T13:01:19.255Z,102317.06
2023-04-16T13:03:46.423Z,102304.28
2023-04-16T13:06:14.088Z,102302.97
2023-04-16T13:08:41.360Z,102304.63
2023-04-16T13:11:09.845Z,102303.91
2023-04-16T13:13:36.866Z,102309.34
2023-04-16T13:16:06.665Z,102313.34
2023-04-16T13:18:33.775Z,102300.28
2023-04-16T13:21:00.846Z,102305.16
2023-04-16T13:23:27.696Z,102294.19
2023-04-16T13:25:54.739Z,102302.16
2023-04-16T13:28:23.047Z,102306.03
2023-04-16T13:30:50.026Z,102299.53
2023-04-16T13:33:17.051Z,102296.53
2023-04-16T13:35:43.970Z,102302.78
2023-04-16T13:38:10.981Z,102303.91
2023-04-16T13:40:37.939Z,102292.81
2023-04-16T13:43:05.967Z,102297.25
2023-04-16T13:45:38.006Z,102297.69
2023-04-16T13:48:05.591Z,102296.44
2023-04-16T13:50:32.867Z,102294.97
2023-04-16T13:52:59.718Z,102297.44
2023-04-16T13:55:26.806Z,102301.06
2023-04-16T13:57:53.739Z,102304.63
2023-04-16T14:00:20.919Z,102304.19
2023-04-16T14:02:49.379Z,102288.16
2023-04-16T14:05:16.527Z,102298.06
2023-04-16T14:07:43.761Z,102301.75
2023-04-16T14:10:11.329Z,102297.09
2023-04-16T14:12:39.174Z,102290.78
2023-04-16T14:15:07.393Z,102298.00
2023-04-16T14:17:34.293Z,102298.25
2023-04-16T14:20:02.843Z,102290.97
2023-04-16T14:22:29.692Z,102296.63
2023-04-16T14:24:56.773Z,102304.03
2023-04-16T14:27:23.756Z,102298.50
2023-04-16T14:29:50.954Z,102284.16
2023-04-16T14:32:17.947Z,102297.19
2023-04-16T14:34:44.882Z,102296.88
2023-04-16T14:37:13.454Z,102291.81
2023-04-16T14:39:40.598Z,102299.78
2023-04-16T14:42:07.449Z,102297.75
2023-04-16T14:44:34.323Z,102301.91
2023-04-16T14:47:01.254Z,102295.25
2023-04-16T14:49:28.183Z,102299.25
2023-04-16T14:51:56.643Z,102298.19
2023-04-16T14:54:25.197Z,102289.69
2023-04-16T14:56:52.039Z,102289.09
2023-04-16T14:59:18.974Z,102283.91
2023-04-16T15:01:47.395Z,102278.81
2023-04-16T15:04:14.720Z,102277.53
2023-04-16T15:06:41.997Z,102280.97
2023-04-16T15:09:09.709Z,102284.16
2023-04-16T15:11:38.309Z,102292.00
2023-04-16T15:14:05.615Z,102286.28
2023-04-16T15:16:32.674Z,102294.63
2023-04-16T15:18:59.639Z,102290.13
2023-04-16T15:21:27.980Z,102285.84
2023-04-16T15:23:54.852Z,102288.97
2023-04-16T15:26:23.266Z,102285.19
2023-04-16T15:28:51.486Z,102283.81
2023-04-16T15:31:20.848Z,102291.31
2023-04-16T15:33:48.248Z,102284.72
2023-04-16T15:36:15.584Z,102281.22
2023-04-16T15:38:42.405Z,102278.31
2023-04-16T15:41:09.951Z,102283.59
2023-04-16T15:43:37.093Z,102280.09
2023-04-16T15:46:05.609Z,102281.72
2023-04-16T15:48:32.463Z,102288.00
2023-04-16T15:50:59.267Z,102271.53
2023-04-16T15:53:29.448Z,102272.94
2023-04-16T15:55:56.356Z,102282.94
2023-04-16T15:58:23.161Z,102284.22
2023-04-16T16:00:53.310Z,102286.06
2023-04-16T16:03:22.087Z,102284.84
2023-04-16T16:05:49.419Z,102286.75
2023-04-16T16:08:16.622Z,102278.78
2023-04-16T16:10:43.997Z,102287.59
2023-04-16T16:13:13.219Z,102297.22
2023-04-16T16:15:41.018Z,102299.47
2023-04-16T16:18:07.954Z,102290.25
2023-04-16T16:20:36.704Z,102299.78
2023-04-16T16:23:04.082Z,102303.63
2023-04-16T16:25:30.994Z,102302.31
2023-04-16T16:27:58.907Z,102309.75
2023-04-16T16:30:26.570Z,102300.97
2023-04-16T16:32:53.556Z,102292.91
2023-04-16T16:35:20.666Z,102309.91
2023-04-16T16:37:48.932Z,102309.91
2023-04-16T16:40:16.183Z,102307.94
2023-04-16T16:42:43.059Z,102308.44
2023-04-16T16:45:11.052Z,102307.78
2023-04-16T16:47:38.050Z,102305.78
2023-04-16T16:50:05.991Z,102304.63
2023-04-16T16:52:32.870Z,102315.53
2023-04-16T16:55:01.369Z,102311.09
2023-04-16T16:57:28.274Z,102312.72
2023-04-16T16:59:55.157Z,102321.19
2023-04-16T17:02:22.252Z,102307.44
2023-04-16T17:04:49.231Z,102307.44
2023-04-16T17:07:16.075Z,102310.06
2023-04-16T17:09:42.947Z,102311.91
2023-04-16T17:12:11.249Z,102302.97
2023-04-16T17:14:38.472Z,102305.94
2023-04-16T17:17:05.510Z,102312.56
2023-04-16T17:19:32.307Z,102315.56
2023-04-16T17:21:59.142Z,102311.25
2023-04-16T17:24:26.105Z,102319.50
2023-04-16T17:26:53.771Z,102312.69
2023-04-16T17:29:25.935Z,102317.34
2023-04-16T17:31:53.814Z,102314.88
2023-04-16T17:34:21.078Z,102317.19
2023-04-16T17:36:48.032Z,102309.41
2023-04-16T17:39:14.900Z,102311.06
2023-04-16T17:41:41.791Z,102312.06
2023-04-16T17:44:11.133Z,102308.22
2023-04-16T17:46:40.039Z,102311.25
2023-04-16T17:49:06.935Z,102312.69
2023-04-16T17:51:33.823Z,102312.22
2023-04-16T17:54:00.680Z,102319.00
2023-04-16T17:56:27.466Z,102311.09
2023-04-16T17:58:54.267Z,102319.28
2023-04-16T18:01:21.190Z,102320.13
2023-04-16T18:03:49.799Z,102319.66
2023-04-16T18:06:16.968Z,102310.00
2023-04-16T18:08:43.752Z,102311.34
2023-04-16T18:11:10.762Z,102317.25
2023-04-16T18:13:37.633Z,102328.72
2023-04-16T18:16:04.594Z,102336.25
2023-04-16T18:18:31.449Z,102325.91
2023-04-16T18:20:59.823Z,102328.09
2023-04-16T18:23:27.311Z,102322.44
2023-04-16T18:25:54.559Z,102322.19
2023-04-16T18:28:21.592Z,102324.69
2023-04-16T18:35:46.348Z,102324.81
2023-04-16T18:38:14.690Z,102321.66
2023-04-16T18:40:42.262Z,102330.28
2023-04-16T18:43:09.453Z,102330.41
2023-04-16T18:45:37.079Z,102339.03
2023-04-16T18:48:04.264Z,102340.25
2023-04-16T18:50:31.207Z,102342.81
2023-04-16T18:52:58.154Z,102351.94
2023-04-16T18:55:26.502Z,102340.59
2023-04-16T18:57:53.375Z,102340.97
2023-04-16T19:00:20.527Z,102352.16
2023-04-16T19:02:47.469Z,102347.44
2023-04-16T19:05:14.380Z,102341.84
2023-04-16T19:07:41.856Z,102348.66
2023-04-16T19:10:09.500Z,102355.91
2023-04-16T19:12:37.772Z,102356.44
2023-04-16T19:15:05.097Z,102350.81
2023-04-16T19:17:31.996Z,102345.59
2023-04-16T19:19:59.174Z,102352.97
2023-04-16T19:22:26.234Z,102360.44
2023-04-16T19:24:54.657Z,102359.88
2023-04-16T19:27:21.470Z,102364.81
2023-04-16T19:29:49.640Z,102356.16
2023-04-16T19:32:16.544Z,102359.97
2023-04-16T19:34:43.432Z,102356.88
2023-04-16T19:37:10.401Z,102364.47
2023-04-16T19:39:37.291Z,102367.56
2023-04-16T19:42:04.208Z,102365.28
2023-04-16T19:44:32.388Z,102369.19
2023-04-16T19:47:00.646Z,102368.81
2023-04-16T19:49:27.516Z,102363.63
2023-04-16T19:51:55.326Z,102370.88
2023-04-16T19:54:22.179Z,102371.81
2023-04-16T19:56:49.419Z,102374.09
2023-04-16T19:59:16.399Z,102376.25
2023-04-16T20:01:43.407Z,102375.09
2023-04-16T20:04:12.193Z,102376.41
2023-04-16T20:06:39.074Z,102377.22
2023-04-16T20:09:06.169Z,102375.41
2023-04-16T20:11:34.620Z,102381.41
2023-04-16T20:14:01.794Z,102381.56
2023-04-16T20:16:28.657Z,102368.72
2023-04-16T20:18:55.576Z,102369.94
2023-04-16T20:21:25.062Z,102374.84
2023-04-16T20:23:51.933Z,102370.16
2023-04-16T20:26:18.940Z,102376.44
2023-04-16T20:28:45.793Z,102374.00
2023-04-16T20:31:12.976Z,102368.59
2023-04-16T20:33:39.903Z,102361.44
2023-04-16T20:36:07.572Z,102367.94
2023-04-16T20:38:37.445Z,102363.22
2023-04-16T20:41:10.117Z,102360.72
2023-04-16T20:43:41.365Z,102358.63
2023-04-16T20:46:08.969Z,102360.72
2023-04-16T20:48:36.019Z,102362.97
2023-04-16T20:51:04.653Z,102357.69
2023-04-16T20:53:32.778Z,102366.31
2023-04-16T20:56:01.083Z,102361.94
2023-04-16T20:58:28.059Z,102370.47
2023-04-16T21:00:57.402Z,102366.75
2023-04-16T21:03:24.743Z,102365.09
2023-04-16T21:05:55.891Z,102356.47
2023-04-16T21:08:23.495Z,102355.66
2023-04-16T21:10:50.707Z,102352.53
2023-04-16T21:13:20.763Z,102356.25
2023-04-16T21:15:47.687Z,102349.28
2023-04-16T21:18:14.731Z,102350.22
2023-04-16T21:20:41.554Z,102349.50
2023-04-16T21:23:08.447Z,102358.34
2023-04-16T21:25:35.426Z,102350.88
2023-04-16T21:28:02.336Z,102353.66
2023-04-16T21:30:30.595Z,102351.69
2023-04-16T21:32:57.516Z,102352.00
2023-04-16T21:35:24.461Z,102345.16
2023-04-16T21:37:51.386Z,102342.88
2023-04-16T21:40:18.248Z,102342.16
2023-04-16T21:42:45.376Z,102348.88
2023-04-16T21:45:12.373Z,102353.63
2023-04-16T21:47:40.897Z,102350.72
2023-04-16T21:50:08.772Z,102349.59
2023-04-16T21:52:40.459Z,102348.03
2023-04-16T21:55:09.544Z,102346.25
2023-04-16T21:57:36.369Z,102355.47
2023-04-16T22:00:08.393Z,102346.78
2023-04-16T22:02:35.375Z,102352.19
2023-04-16T22:05:03.999Z,102344.72
2023-04-16T22:07:30.871Z,102342.56
2023-04-16T22:09:57.684Z,102343.69
2023-04-16T22:12:24.505Z,102338.16
2023-04-16T22:17:23.688Z,102339.03
2023-04-16T22:19:50.918Z,102338.38
2023-04-16T22:22:20.637Z,102324.56
2023-04-16T22:24:48.823Z,102334.56
2023-04-16T22:27:15.882Z,102327.31
2023-04-16T22:29:42.939Z,102325.78
2023-04-16T22:32:09.858Z,102325.38
2023-04-16T22:34:36.865Z,102326.81
2023-04-16T22:37:03.696Z,102326.47
2023-04-16T22:39:32.116Z,102319.25
2023-04-16T22:41:59.054Z,102318.84
2023-04-16T22:44:25.886Z,102313.03
2023-04-16T22:46:52.749Z,102307.22
2023-04-16T22:49:20.346Z,102313.22
2023-04-16T22:51:47.182Z,102306.28
2023-04-16T22:54:14.125Z,102303.19
2023-04-16T22:56:42.484Z,102304.81
2023-04-16T22:59:09.480Z,102309.09
2023-04-16T23:01:36.711Z,102301.50
2023-04-16T23:04:03.683Z,102316.13
2023-04-16T23:06:31.511Z,102314.06
2023-04-16T23:08:58.416Z,102317.56
2023-04-16T23:11:25.412Z,102318.00
2023-04-16T23:13:53.670Z,102317.16
2023-04-16T23:16:20.681Z,102316.75
2023-04-16T23:18:47.674Z,102316.03
2023-04-16T23:21:14.551Z,102318.72
2023-04-16T23:23:41.487Z,102319.44
2023-04-16T23:26:08.302Z,102330.75
2023-04-16T23:28:35.234Z,102326.06
2023-04-16T23:31:05.281Z,102322.00
2023-04-16T23:33:33.561Z,102323.06
2023-04-16T23:36:00.555Z,102326.41
2023-04-16T23:38:27.465Z,102321.81
2023-04-16T23:40:54.350Z,102319.25
2023-04-16T23:43:21.195Z,102327.94
2023-04-16T23:45:48.055Z,102326.06
2023-04-16T23:48:16.308Z,102326.94
2023-04-16T23:50:43.155Z,102335.00
2023-04-16T23:53:10.014Z,102322.16
2023-04-16T23:55:36.867Z,102326.19
2023-04-16T23:58:03.695Z,102321.59
